Time;durP1;ratioP1;P1;durP2;ratioP2;P2;SDS_P1;SDS_P2;PMS_P1;PMS_P2;Temp;Humidity;BMP_temperature;BMP_pressure;BME280_temperature;BME280_humidity;BME280_pressure;Samples;Min_cycle;Max_cycle;Signal;HPM_P1;HPM_P2
2022/01/17 00:00:15;;;;;;;27.40;16.33;;;4.90;66.10;;;;;;4996154;28;20056;-84
2022/01/17 00:02:41;;;;;;;30.40;17.00;;;4.90;65.50;;;;;;4995884;28;20222;-84
2022/01/17 00:05:08;;;;;;;29.80;18.13;;;4.90;65.40;;;;;;4991892;28;20019;-84
2022/01/17 00:07:35;;;;;;;26.43;16.93;;;4.80;65.30;;;;;;4993009;28;20121;-85
2022/01/17 00:10:01;;;;;;;27.13;16.57;;;4.90;65.60;;;;;;4985202;28;20023;-84
2022/01/17 00:12:28;;;;;;;27.70;16.60;;;4.90;65.50;;;;;;4988911;28;20512;-84
2022/01/17 00:14:56;;;;;;;28.07;17.70;;;4.90;66.10;;;;;;4996816;28;20018;-84
2022/01/17 00:19:52;;;;;;;31.83;18.73;;;4.80;65.60;;;;;;5011033;28;20500;-84
2022/01/17 00:22:20;;;;;;;30.07;17.80;;;4.80;65.60;;;;;;4989846;28;20370;-84
2022/01/17 00:24:47;;;;;;;26.43;17.20;;;4.90;65.70;;;;;;5001204;28;20021;-84
2022/01/17 00:27:13;;;;;;;30.30;17.40;;;4.90;65.60;;;;;;4998852;28;20116;-84
2022/01/17 00:29:39;;;;;;;26.90;16.53;;;4.90;65.60;;;;;;5016548;28;20026;-84
2022/01/17 00:32:05;;;;;;;26.07;16.67;;;4.80;65.70;;;;;;4998926;28;20088;-85
2022/01/17 00:34:31;;;;;;;25.70;16.63;;;4.80;65.80;;;;;;4998852;28;20080;-84
2022/01/17 00:36:57;;;;;;;26.33;15.73;;;4.80;65.80;;;;;;4998754;28;20026;-84
2022/01/17 00:39:23;;;;;;;26.90;15.23;;;4.80;65.80;;;;;;5007878;28;20073;-84
2022/01/17 00:41:50;;;;;;;30.43;15.50;;;4.90;65.80;;;;;;4999444;28;20113;-84
2022/01/17 00:44:20;;;;;;;28.10;16.77;;;4.80;65.70;;;;;;4998967;28;20022;-84
2022/01/17 00:46:46;;;;;;;30.80;19.03;;;4.80;65.80;;;;;;5004927;28;20053;-84
2022/01/17 00:49:11;;;;;;;29.00;19.10;;;4.80;65.70;;;;;;4998833;28;20531;-84
2022/01/17 00:51:37;;;;;;;29.37;17.80;;;4.60;65.90;;;;;;4998382;28;20163;-84
2022/01/17 00:54:03;;;;;;;27.20;17.00;;;4.60;66.30;;;;;;5015991;28;20057;-84
2022/01/17 00:56:29;;;;;;;28.30;17.03;;;4.70;66.50;;;;;;4998062;28;20030;-84
2022/01/17 00:58:54;;;;;;;27.47;16.97;;;4.70;66.50;;;;;;4998509;28;20022;-84
2022/01/17 01:01:20;;;;;;;27.53;17.77;;;4.70;66.40;;;;;;4998291;28;20042;-84
2022/01/17 01:03:46;;;;;;;28.27;18.50;;;4.70;66.40;;;;;;5004165;28;20582;-84
2022/01/17 01:06:12;;;;;;;25.20;17.10;;;4.70;66.40;;;;;;5010648;28;20469;-84
2022/01/17 01:08:37;;;;;;;27.07;17.63;;;4.70;66.40;;;;;;4978792;28;20034;-84
2022/01/17 01:11:03;;;;;;;26.97;16.43;;;4.80;66.40;;;;;;5014503;28;20037;-84
2022/01/17 01:13:30;;;;;;;26.53;17.70;;;4.80;66.30;;;;;;4998076;28;20022;-84
2022/01/17 01:18:39;;;;;;;28.37;17.83;;;4.70;66.20;;;;;;5016148;28;20022;-84
2022/01/17 01:29:03;;;;;;;33.03;19.17;;;4.80;66.90;;;;;;5015968;28;20545;-84
2022/01/17 01:31:43;;;;;;;30.20;19.33;;;4.80;66.70;;;;;;5015453;28;20053;-84
2022/01/17 01:34:10;;;;;;;29.67;18.30;;;4.70;66.60;;;;;;5015523;28;20072;-84
2022/01/17 01:36:36;;;;;;;26.10;18.07;;;4.70;66.60;;;;;;4995929;28;20071;-84
2022/01/17 01:39:05;;;;;;;26.80;17.87;;;4.70;66.70;;;;;;5008118;28;20428;-83
2022/01/17 01:41:41;;;;;;;25.13;16.27;;;4.70;66.80;;;;;;4985838;28;20026;-84
2022/01/17 01:44:15;;;;;;;22.40;15.17;;;4.70;67.00;;;;;;4996666;28;20116;-84
2022/01/17 01:46:43;;;;;;;22.93;14.50;;;4.70;67.00;;;;;;4987302;28;20053;-84
2022/01/17 01:49:09;;;;;;;23.53;14.63;;;4.70;67.10;;;;;;4998749;28;20029;-84
2022/01/17 01:51:36;;;;;;;24.57;15.13;;;4.70;67.10;;;;;;5000206;28;20416;-84
2022/01/17 01:54:03;;;;;;;26.33;16.60;;;4.70;67.00;;;;;;5001711;28;20117;-84
2022/01/17 01:56:29;;;;;;;27.57;16.37;;;4.70;66.90;;;;;;5003837;28;20033;-84
2022/01/17 01:58:55;;;;;;;24.57;15.07;;;4.70;67.00;;;;;;4995973;28;20117;-85
2022/01/17 02:01:20;;;;;;;25.30;15.80;;;4.70;67.00;;;;;;4996722;28;20101;-84
2022/01/17 02:03:46;;;;;;;25.40;16.17;;;4.70;66.90;;;;;;4990493;28;20025;-84
2022/01/17 02:06:12;;;;;;;22.53;16.07;;;4.70;67.00;;;;;;4996399;28;20419;-84
2022/01/17 02:08:37;;;;;;;22.73;15.93;;;4.70;67.00;;;;;;4996675;28;20034;-84
2022/01/17 02:11:03;;;;;;;27.57;16.70;;;4.60;66.90;;;;;;4990628;28;20027;-84
2022/01/17 02:13:29;;;;;;;24.87;15.97;;;4.60;67.10;;;;;;4995417;28;20024;-84
2022/01/17 02:16:04;;;;;;;27.17;15.23;;;4.70;67.20;;;;;;5009381;28;20184;-84
2022/01/17 02:18:31;;;;;;;25.23;16.53;;;4.60;67.00;;;;;;4995864;28;20049;-84
2022/01/17 02:23:45;;;;;;;24.30;16.50;;;4.70;67.20;;;;;;5009964;28;20105;-84
2022/01/17 02:26:11;;;;;;;24.07;17.03;;;4.70;67.10;;;;;;4992540;28;20477;-84
2022/01/17 02:28:39;;;;;;;27.23;16.77;;;4.70;67.10;;;;;;4994514;28;20489;-84
2022/01/17 02:31:06;;;;;;;27.27;16.87;;;4.70;67.10;;;;;;4993822;28;20033;-84
2022/01/17 02:33:33;;;;;;;25.40;16.60;;;4.70;67.00;;;;;;5019866;28;20037;-84
2022/01/17 02:35:59;;;;;;;26.87;17.23;;;4.70;67.10;;;;;;4992526;28;20034;-84
2022/01/17 02:38:25;;;;;;;26.70;17.07;;;4.70;67.10;;;;;;5000175;28;20097;-84
2022/01/17 02:40:52;;;;;;;27.23;16.67;;;4.70;67.10;;;;;;5001473;28;20117;-84
2022/01/17 02:43:20;;;;;;;24.80;15.40;;;4.70;67.00;;;;;;5003637;28;20037;-84
2022/01/17 02:48:27;;;;;;;23.25;15.80;;;4.60;67.30;;;;;;5009276;28;20404;-84
2022/01/17 02:50:53;;;;;;;23.07;14.53;;;4.60;67.40;;;;;;4999479;28;20033;-84
2022/01/17 02:53:19;;;;;;;27.13;16.80;;;4.60;67.30;;;;;;4996081;28;20037;-84
2022/01/17 02:55:51;;;;;;;26.63;16.73;;;4.60;67.30;;;;;;4993354;28;20029;-82
2022/01/17 02:58:20;;;;;;;27.48;16.60;;;4.60;67.30;;;;;;4996055;28;20022;-83
2022/01/17 03:00:48;;;;;;;22.47;14.90;;;4.60;67.30;;;;;;4995994;28;20050;-83
2022/01/17 03:03:20;;;;;;;23.97;15.37;;;4.60;67.50;;;;;;4987221;28;20061;-83
2022/01/17 03:05:45;;;;;;;26.15;16.90;;;4.60;67.50;;;;;;4995033;28;20481;-83
2022/01/17 03:08:12;;;;;;;26.93;17.20;;;4.60;67.30;;;;;;5003943;28;20041;-83
2022/01/17 03:13:05;;;;;;;27.23;17.30;;;4.60;68.10;;;;;;5009047;28;20038;-83
2022/01/17 03:15:31;;;;;;;24.60;16.93;;;4.60;67.50;;;;;;4994254;28;20041;-83
2022/01/17 03:17:56;;;;;;;26.77;16.37;;;4.70;67.60;;;;;;4984073;28;20168;-83
2022/01/17 03:20:22;;;;;;;22.03;15.37;;;4.70;67.50;;;;;;4996556;28;20100;-83
2022/01/17 03:22:48;;;;;;;24.13;15.27;;;4.70;67.50;;;;;;5002104;28;20080;-83
2022/01/17 03:25:13;;;;;;;26.00;15.77;;;4.70;67.50;;;;;;5004682;28;20026;-83
2022/01/17 03:27:39;;;;;;;24.70;15.97;;;4.70;67.40;;;;;;5011123;28;20452;-83
2022/01/17 03:30:06;;;;;;;27.13;16.40;;;4.70;67.30;;;;;;4994111;28;20366;-83
2022/01/17 03:32:31;;;;;;;30.47;18.40;;;4.70;67.60;;;;;;4992177;28;20050;-84
2022/01/17 03:34:57;;;;;;;34.27;19.73;;;4.60;67.50;;;;;;4994596;28;20061;-84
2022/01/17 03:37:23;;;;;;;27.17;17.50;;;4.60;67.70;;;;;;4990936;28;20508;-83
2022/01/17 03:39:49;;;;;;;30.97;18.57;;;4.60;67.90;;;;;;4989555;28;20025;-83
2022/01/17 03:42:18;;;;;;;26.97;17.00;;;4.70;67.80;;;;;;5020328;28;20065;-83
2022/01/17 03:44:44;;;;;;;30.33;17.43;;;4.70;67.70;;;;;;4987820;28;20037;-83
2022/01/17 03:47:09;;;;;;;27.00;17.93;;;4.70;67.60;;;;;;4997351;28;20093;-83
2022/01/17 03:49:35;;;;;;;25.70;17.47;;;4.80;67.70;;;;;;4994859;28;20029;-83
2022/01/17 03:52:01;;;;;;;28.07;16.80;;;4.70;67.50;;;;;;4988739;28;20033;-83
2022/01/17 03:54:27;;;;;;;25.77;17.57;;;4.70;67.60;;;;;;4986055;28;20069;-83
2022/01/17 03:56:52;;;;;;;27.27;17.30;;;4.70;67.60;;;;;;4992335;28;20116;-84
2022/01/17 03:59:18;;;;;;;29.43;19.47;;;4.70;67.80;;;;;;5018925;28;20018;-83
2022/01/17 04:01:44;;;;;;;25.27;16.63;;;4.70;67.70;;;;;;5010260;28;20017;-83
2022/01/17 04:04:10;;;;;;;24.73;16.60;;;4.70;67.80;;;;;;4998434;28;20037;-83
2022/01/17 04:06:36;;;;;;;26.47;16.77;;;4.60;67.80;;;;;;4976162;28;20509;-81
2022/01/17 04:09:01;;;;;;;25.53;17.47;;;4.60;67.80;;;;;;4998145;28;20026;-80
2022/01/17 04:11:27;;;;;;;138.60;61.60;;;4.60;67.70;;;;;;4989074;28;20026;-81
2022/01/17 04:13:53;;;;;;;115.03;53.40;;;4.50;67.90;;;;;;4991400;28;20419;-81
2022/01/17 04:16:18;;;;;;;38.40;22.73;;;4.60;68.20;;;;;;4992135;28;20050;-80
2022/01/17 04:18:44;;;;;;;29.93;19.00;;;4.60;68.10;;;;;;4987804;28;20052;-81
2022/01/17 04:21:10;;;;;;;30.50;18.60;;;4.70;68.10;;;;;;4996974;28;20026;-81
2022/01/17 04:23:36;;;;;;;31.83;19.37;;;4.70;67.90;;;;;;5007805;28;20033;-81
2022/01/17 04:26:01;;;;;;;29.20;18.50;;;4.70;67.90;;;;;;5005780;28;20018;-81
2022/01/17 04:28:27;;;;;;;31.70;18.50;;;4.70;67.90;;;;;;5004061;28;20030;-81
2022/01/17 04:30:53;;;;;;;27.27;17.93;;;4.70;68.10;;;;;;4984726;28;20022;-81
2022/01/17 04:33:19;;;;;;;26.80;17.87;;;4.70;68.10;;;;;;4987751;28;20041;-80
2022/01/17 04:35:45;;;;;;;29.30;19.37;;;4.70;68.10;;;;;;5004406;28;20030;-81
2022/01/17 04:38:17;;;;;;;30.17;18.60;;;4.70;68.00;;;;;;4996049;28;20028;-81
2022/01/17 04:40:47;;;;;;;32.63;18.95;;;4.70;68.00;;;;;;5017625;28;20024;-80
2022/01/17 04:43:43;;;;;;;27.13;18.73;;;4.70;68.10;;;;;;5011641;28;20365;-81
2022/01/17 04:46:10;;;;;;;26.57;16.97;;;4.70;68.10;;;;;;4997215;28;20166;-81
2022/01/17 04:48:36;;;;;;;29.00;18.17;;;4.80;68.40;;;;;;5002300;28;20057;-81
2022/01/17 04:51:03;;;;;;;28.30;19.13;;;4.80;68.00;;;;;;5003001;28;20034;-80
2022/01/17 04:53:30;;;;;;;31.33;20.27;;;4.70;67.90;;;;;;4998350;28;20042;-81
2022/01/17 04:55:57;;;;;;;32.43;19.13;;;4.60;68.30;;;;;;4987751;28;20184;-81
2022/01/17 04:58:22;;;;;;;29.23;18.60;;;4.60;68.60;;;;;;4992060;28;20520;-81
2022/01/17 05:00:49;;;;;;;30.73;17.60;;;4.70;68.60;;;;;;4990392;28;20122;-81
2022/01/17 05:03:17;;;;;;;27.33;16.87;;;4.70;68.50;;;;;;4995699;28;20026;-81
2022/01/17 05:05:42;;;;;;;27.20;18.40;;;4.80;68.50;;;;;;4989880;28;20029;-81
2022/01/17 05:08:08;;;;;;;31.13;18.97;;;4.80;68.50;;;;;;4992268;28;20125;-81
2022/01/17 05:10:34;;;;;;;28.73;18.90;;;4.70;68.30;;;;;;4991662;28;20493;-81
2022/01/17 05:13:00;;;;;;;27.17;17.07;;;4.70;68.40;;;;;;4989771;28;20046;-81
2022/01/17 05:20:36;;;;;;;30.13;19.63;;;4.80;68.50;;;;;;5008225;28;20046;-81
2022/01/17 05:23:01;;;;;;;31.03;20.17;;;4.70;68.40;;;;;;4996719;28;20022;-81
2022/01/17 05:25:27;;;;;;;31.93;20.17;;;4.70;68.50;;;;;;5009608;28;20036;-80
2022/01/17 05:27:53;;;;;;;34.60;20.80;;;4.70;68.80;;;;;;5006011;28;20141;-80
2022/01/17 05:30:21;;;;;;;32.60;20.47;;;4.70;68.80;;;;;;5011133;28;20037;-81
2022/01/17 05:32:48;;;;;;;30.50;20.20;;;4.70;69.00;;;;;;4993266;28;20531;-81
2022/01/17 05:35:14;;;;;;;31.10;20.05;;;4.70;68.90;;;;;;5010938;28;20080;-81
2022/01/17 05:37:41;;;;;;;32.23;21.87;;;4.60;69.00;;;;;;5011603;28;20033;-80
2022/01/17 05:40:10;;;;;;;39.53;27.10;;;4.60;69.10;;;;;;4998799;28;20116;-80
2022/01/17 05:42:36;;;;;;;34.03;21.83;;;4.60;69.20;;;;;;4989746;28;20436;-81
2022/01/17 05:45:03;;;;;;;33.93;21.67;;;4.70;69.20;;;;;;5008709;28;20025;-81
2022/01/17 05:47:29;;;;;;;32.37;20.73;;;4.70;69.30;;;;;;4992660;28;20396;-81
2022/01/17 05:49:55;;;;;;;33.13;20.57;;;4.70;69.10;;;;;;4995819;28;20027;-81
2022/01/17 05:52:20;;;;;;;31.93;20.73;;;4.60;68.80;;;;;;5009111;28;20447;-81
2022/01/17 05:54:46;;;;;;;30.23;21.00;;;4.60;69.40;;;;;;4992554;28;20084;-81
2022/01/17 05:57:12;;;;;;;33.20;20.33;;;4.60;69.60;;;;;;4998057;28;20149;-81
2022/01/17 05:59:39;;;;;;;36.33;20.90;;;4.70;69.40;;;;;;4995706;28;20126;-81
2022/01/17 06:02:05;;;;;;;32.63;20.10;;;4.60;69.60;;;;;;4996227;28;20022;-81
2022/01/17 06:04:31;;;;;;;31.60;21.07;;;4.60;69.60;;;;;;4990993;28;20090;-81
2022/01/17 06:06:57;;;;;;;32.83;21.00;;;4.70;69.40;;;;;;4990393;28;20118;-80
2022/01/17 06:09:23;;;;;;;32.03;20.73;;;4.60;69.40;;;;;;4995912;28;20022;-80
2022/01/17 06:11:48;;;;;;;33.97;21.27;;;4.60;69.20;;;;;;5003507;28;20044;-81
2022/01/17 06:14:17;;;;;;;33.17;22.17;;;4.70;69.20;;;;;;4992240;28;20033;-81
2022/01/17 06:16:44;;;;;;;35.30;22.57;;;4.70;69.00;;;;;;4988112;28;20052;-81
2022/01/17 06:19:10;;;;;;;27.90;18.13;;;4.60;69.30;;;;;;4983240;28;20039;-79
2022/01/17 06:21:36;;;;;;;32.03;20.50;;;4.60;69.70;;;;;;4983776;28;20026;-81
2022/01/17 06:24:04;;;;;;;44.53;27.13;;;4.70;69.60;;;;;;4987352;28;20593;-81
2022/01/17 06:26:30;;;;;;;34.73;23.73;;;4.80;69.70;;;;;;4983271;28;20029;-81
2022/01/17 06:28:56;;;;;;;43.10;25.33;;;4.80;69.70;;;;;;4990095;28;20030;-80
2022/01/17 06:31:21;;;;;;;38.13;25.00;;;4.90;69.70;;;;;;4988170;28;20105;-80
2022/01/17 06:33:47;;;;;;;36.67;23.30;;;4.80;69.50;;;;;;4985237;28;20037;-81
2022/01/17 06:36:13;;;;;;;37.70;24.13;;;4.90;69.70;;;;;;4987304;28;20374;-80
2022/01/17 06:38:38;;;;;;;41.60;23.20;;;4.90;69.80;;;;;;4990280;28;20101;-81
2022/01/17 06:41:04;;;;;;;34.30;21.50;;;4.90;69.50;;;;;;4990746;28;20460;-81
2022/01/17 06:43:30;;;;;;;39.70;23.50;;;4.80;69.70;;;;;;4990473;28;20026;-81
2022/01/17 06:45:56;;;;;;;36.50;22.23;;;4.70;69.60;;;;;;4991716;28;20033;-81
2022/01/17 06:48:22;;;;;;;30.50;20.03;;;4.80;69.70;;;;;;4988821;28;20037;-81
2022/01/17 06:50:47;;;;;;;36.10;23.70;;;4.80;69.50;;;;;;4982582;28;20497;-80
2022/01/17 06:53:13;;;;;;;33.33;21.77;;;4.70;69.40;;;;;;4991577;28;20061;-81
2022/01/17 06:55:39;;;;;;;35.40;21.70;;;4.70;69.60;;;;;;4991479;28;20035;-80
2022/01/17 06:58:04;;;;;;;29.53;19.90;;;4.70;69.50;;;;;;4991725;28;20054;-80
2022/01/17 07:00:30;;;;;;;35.23;22.73;;;4.70;70.20;;;;;;4988670;28;20401;-81
2022/01/17 07:02:56;;;;;;;40.27;24.27;;;4.90;69.80;;;;;;4982297;28;20022;-81
2022/01/17 07:05:21;;;;;;;31.13;20.87;;;4.90;69.50;;;;;;4992132;28;20404;-81
2022/01/17 07:07:47;;;;;;;29.43;20.50;;;5.00;69.50;;;;;;5000345;28;20030;-80
2022/01/17 07:10:13;;;;;;;30.37;18.67;;;5.00;69.40;;;;;;4989280;28;20034;-81
2022/01/17 07:12:39;;;;;;;25.17;17.07;;;4.90;69.50;;;;;;4992413;28;20145;-81
2022/01/17 07:15:06;;;;;;;35.70;19.63;;;4.90;69.50;;;;;;4991170;28;20039;-80
2022/01/17 07:17:32;;;;;;;32.30;19.87;;;4.90;69.50;;;;;;4990351;28;20041;-80
2022/01/17 07:19:58;;;;;;;35.23;20.73;;;4.80;70.10;;;;;;4981699;28;20444;-82
2022/01/17 07:22:23;;;;;;;33.87;18.60;;;4.80;69.70;;;;;;4985902;28;20027;-81
2022/01/17 07:24:49;;;;;;;26.77;17.37;;;4.90;69.60;;;;;;4986261;28;20045;-81
2022/01/17 07:27:16;;;;;;;29.27;18.00;;;4.80;69.60;;;;;;4987390;28;20026;-81
2022/01/17 07:29:42;;;;;;;30.10;17.47;;;4.80;69.50;;;;;;4987696;28;20022;-81
2022/01/17 07:32:09;;;;;;;27.87;17.03;;;4.80;69.70;;;;;;4988231;28;20402;-81
2022/01/17 07:34:35;;;;;;;28.53;16.53;;;4.70;69.80;;;;;;4985539;28;20511;-81
2022/01/17 07:37:01;;;;;;;29.90;17.97;;;4.80;69.80;;;;;;4981141;28;20058;-81
2022/01/17 07:39:27;;;;;;;26.10;16.87;;;4.80;70.20;;;;;;4985532;28;20080;-81
2022/01/17 07:41:53;;;;;;;31.73;18.50;;;4.80;69.70;;;;;;4988169;28;20504;-81
2022/01/17 07:44:20;;;;;;;30.90;19.40;;;4.80;69.70;;;;;;4981219;28;20130;-81
2022/01/17 07:47:00;;;;;;;30.33;20.63;;;4.80;69.70;;;;;;4982133;28;20027;-82
2022/01/17 07:49:26;;;;;;;33.80;21.97;;;4.90;69.70;;;;;;4987273;28;20032;-81
2022/01/17 07:52:04;;;;;;;34.33;21.90;;;4.90;69.60;;;;;;4983006;28;20105;-81
2022/01/17 07:54:35;;;;;;;32.20;20.77;;;4.90;69.60;;;;;;4983890;28;20031;-81
2022/01/17 07:57:01;;;;;;;37.80;23.80;;;4.90;69.50;;;;;;4984841;28;20029;-81
2022/01/17 07:59:27;;;;;;;37.80;22.70;;;4.90;69.40;;;;;;4991947;28;20404;-81
2022/01/17 08:01:53;;;;;;;33.87;21.57;;;4.90;69.50;;;;;;4987001;28;20034;-81
2022/01/17 08:04:19;;;;;;;33.70;20.70;;;4.90;69.50;;;;;;4986434;28;20031;-81
2022/01/17 08:06:46;;;;;;;29.97;20.40;;;5.00;69.50;;;;;;4985186;28;20493;-81
2022/01/17 08:09:24;;;;;;;33.87;20.00;;;5.00;69.40;;;;;;4979561;28;20413;-80
2022/01/17 08:11:51;;;;;;;28.57;19.97;;;4.90;69.30;;;;;;4982493;28;20077;-81
2022/01/17 08:14:17;;;;;;;34.53;21.80;;;4.90;69.80;;;;;;4986763;28;20027;-81
2022/01/17 08:16:42;;;;;;;34.93;21.40;;;5.00;69.50;;;;;;5008868;28;20045;-80
2022/01/17 08:19:08;;;;;;;33.43;22.07;;;5.00;69.50;;;;;;4995961;28;20073;-81
2022/01/17 08:21:34;;;;;;;30.50;20.70;;;5.00;69.50;;;;;;4999209;28;20026;-81
2022/01/17 08:24:00;;;;;;;31.70;21.53;;;5.00;69.40;;;;;;5006208;28;20037;-79
2022/01/17 08:26:26;;;;;;;39.80;23.23;;;5.10;69.40;;;;;;4984899;28;20040;-78
2022/01/17 08:28:52;;;;;;;26.17;18.37;;;5.00;69.30;;;;;;4992661;28;20033;-81
2022/01/17 08:31:19;;;;;;;34.07;21.23;;;5.10;69.70;;;;;;4995793;28;20032;-81
2022/01/17 08:33:45;;;;;;;39.37;24.83;;;5.10;69.50;;;;;;4988050;28;20029;-80
2022/01/17 08:36:11;;;;;;;37.93;25.07;;;5.10;69.40;;;;;;4996721;28;20029;-81
2022/01/17 08:38:40;;;;;;;32.37;21.93;;;5.20;69.40;;;;;;4989364;28;20496;-81
2022/01/17 08:41:05;;;;;;;34.33;22.97;;;5.10;69.50;;;;;;4984393;28;20080;-82
2022/01/17 08:43:31;;;;;;;38.57;25.07;;;5.20;69.40;;;;;;4985373;28;20026;-80
2022/01/17 08:45:57;;;;;;;34.90;23.03;;;5.20;69.20;;;;;;4991089;28;20112;-81
2022/01/17 08:48:23;;;;;;;32.67;21.77;;;5.20;69.10;;;;;;5017202;28;20037;-81
2022/01/17 08:50:50;;;;;;;28.93;18.83;;;5.20;69.10;;;;;;4993426;28;20057;-81
2022/01/17 08:53:17;;;;;;;37.10;20.57;;;5.20;69.30;;;;;;4996837;28;20022;-81
2022/01/17 08:55:44;;;;;;;32.00;20.53;;;5.10;69.20;;;;;;5010799;28;20026;-81
2022/01/17 08:58:11;;;;;;;30.30;21.13;;;5.10;69.20;;;;;;5000557;28;20037;-80
2022/01/17 09:00:38;;;;;;;27.53;19.20;;;5.20;69.20;;;;;;4995909;28;20033;-81
2022/01/17 09:03:04;;;;;;;31.50;20.90;;;5.20;69.50;;;;;;4996859;28;20029;-81
2022/01/17 09:05:32;;;;;;;24.57;17.63;;;5.20;69.70;;;;;;5010252;28;20137;-80
2022/01/17 09:07:58;;;;;;;26.77;18.13;;;5.30;69.50;;;;;;5006330;28;20097;-81
2022/01/17 09:10:25;;;;;;;21.27;15.23;;;5.30;69.10;;;;;;5006193;28;20341;-81
2022/01/17 09:12:52;;;;;;;27.00;18.80;;;5.30;69.20;;;;;;4999678;28;20018;-81
2022/01/17 09:15:18;;;;;;;26.23;18.23;;;5.40;69.00;;;;;;4997174;28;20400;-81
2022/01/17 09:17:44;;;;;;;30.53;19.33;;;5.40;69.10;;;;;;5005215;28;20465;-82
2022/01/17 09:20:10;;;;;;;28.13;18.87;;;5.40;69.00;;;;;;4993204;28;20034;-82
2022/01/17 09:22:36;;;;;;;22.03;14.87;;;5.40;69.10;;;;;;4995897;28;20386;-81
2022/01/17 09:25:06;;;;;;;26.33;16.87;;;5.50;69.20;;;;;;4996008;28;20058;-81
2022/01/17 09:27:33;;;;;;;26.30;19.03;;;5.70;68.70;;;;;;4996812;28;20034;-81
2022/01/17 09:29:59;;;;;;;28.00;19.47;;;5.80;68.20;;;;;;4993074;28;20084;-81
2022/01/17 09:32:24;;;;;;;27.97;19.13;;;5.70;68.20;;;;;;4992520;28;20408;-81
2022/01/17 09:34:50;;;;;;;32.47;19.30;;;5.70;68.40;;;;;;4997026;28;20543;-81
2022/01/17 09:37:16;;;;;;;26.90;19.57;;;5.70;68.40;;;;;;4990705;28;20025;-81
2022/01/17 09:39:41;;;;;;;31.37;21.37;;;5.70;68.40;;;;;;5000094;28;20029;-81
2022/01/17 09:42:08;;;;;;;36.43;24.30;;;5.70;68.40;;;;;;4993795;28;20034;-81
2022/01/17 09:44:35;;;;;;;34.80;23.03;;;5.90;68.60;;;;;;5002306;28;20128;-81
2022/01/17 09:47:05;;;;;;;38.63;25.93;;;5.90;67.80;;;;;;4991171;28;20111;-81
2022/01/17 09:49:43;;;;;;;35.63;24.47;;;5.90;68.00;;;;;;4993259;28;20369;-81
2022/01/17 09:54:44;;;;;;;39.33;24.90;;;5.80;68.20;;;;;;5006013;28;20053;-81
2022/01/17 09:57:11;;;;;;;34.87;22.83;;;5.90;68.00;;;;;;4993544;28;20449;-81
2022/01/17 09:59:39;;;;;;;35.80;23.63;;;6.00;67.70;;;;;;5000850;28;20061;-81
2022/01/17 10:02:05;;;;;;;39.23;24.20;;;6.00;67.70;;;;;;4991310;28;20451;-81
2022/01/17 10:04:33;;;;;;;39.67;24.77;;;6.00;67.60;;;;;;5007091;28;20026;-81
2022/01/17 10:07:01;;;;;;;38.93;23.73;;;6.00;67.80;;;;;;4985729;28;20550;-81
2022/01/17 10:09:28;;;;;;;37.00;23.03;;;6.00;67.80;;;;;;5003357;28;20746;-80
2022/01/17 10:12:01;;;;;;;32.97;22.60;;;6.00;67.70;;;;;;4986820;28;20113;-81
2022/01/17 10:14:29;;;;;;;31.40;21.13;;;6.00;67.60;;;;;;4996448;28;20080;-81
2022/01/17 10:16:55;;;;;;;30.77;21.43;;;6.10;67.60;;;;;;5012799;28;20044;-81
2022/01/17 10:19:26;;;;;;;31.50;22.43;;;6.20;67.20;;;;;;4995181;28;20510;-81
2022/01/17 10:21:56;;;;;;;36.43;22.00;;;6.20;67.00;;;;;;4990389;28;20109;-81
2022/01/17 10:35:14;;;;;;;29.80;19.40;;;6.40;67.20;;;;;;4992269;28;20122;-81
2022/01/17 10:37:40;;;;;;;29.30;19.93;;;6.50;67.10;;;;;;4984349;28;20478;-81
2022/01/17 10:40:15;;;;;;;29.73;19.97;;;6.60;66.90;;;;;;4994814;28;20060;-81
2022/01/17 10:42:48;;;;;;;31.87;20.13;;;6.70;66.70;;;;;;5012309;28;20026;-81
2022/01/17 10:45:21;;;;;;;29.63;19.93;;;6.80;66.40;;;;;;4995595;28;20030;-81
2022/01/17 10:47:50;;;;;;;31.77;19.70;;;6.90;66.30;;;;;;4995309;28;20031;-81
2022/01/17 10:50:19;;;;;;;28.07;19.40;;;7.10;66.00;;;;;;5003076;28;20170;-81
2022/01/17 10:52:47;;;;;;;25.57;17.40;;;7.30;65.60;;;;;;4994687;28;20026;-81
2022/01/17 10:55:21;;;;;;;20.97;15.07;;;7.50;65.40;;;;;;4993088;28;20384;-81
2022/01/17 10:57:50;;;;;;;20.10;13.57;;;7.80;65.10;;;;;;4994398;28;20153;-80
2022/01/17 11:00:19;;;;;;;18.33;12.77;;;8.20;64.30;;;;;;4988555;28;20240;-81
2022/01/17 11:02:52;;;;;;;20.50;13.90;;;8.40;63.20;;;;;;4991759;28;20040;-82
2022/01/17 11:05:21;;;;;;;22.15;14.52;;;8.60;62.30;;;;;;4997873;28;20092;-81
2022/01/17 11:07:51;;;;;;;22.37;14.50;;;8.80;62.10;;;;;;4994033;28;20088;-81
2022/01/17 11:10:26;;;;;;;20.73;14.00;;;8.90;61.80;;;;;;4992777;28;20120;-81
2022/01/17 11:12:55;;;;;;;19.23;14.70;;;9.10;61.20;;;;;;4988319;28;20502;-81
2022/01/17 11:15:22;;;;;;;22.73;14.57;;;9.20;61.00;;;;;;4991836;28;20504;-81
2022/01/17 11:17:51;;;;;;;21.67;15.47;;;9.40;60.90;;;;;;4985752;28;20034;-81
2022/01/17 11:20:20;;;;;;;21.63;14.77;;;9.50;60.20;;;;;;5011835;28;20025;-82
2022/01/17 11:22:48;;;;;;;19.77;13.60;;;9.60;60.00;;;;;;4985531;28;20022;-81
2022/01/17 11:25:18;;;;;;;18.27;12.80;;;9.60;59.50;;;;;;4982318;28;20487;-81
2022/01/17 11:27:45;;;;;;;19.87;14.27;;;9.60;59.60;;;;;;4994000;28;20052;-82
2022/01/17 11:30:12;;;;;;;17.70;13.70;;;9.80;59.20;;;;;;4993885;28;20033;-81
2022/01/17 11:32:38;;;;;;;17.43;12.10;;;9.80;59.00;;;;;;4993905;28;20357;-81
2022/01/17 11:35:06;;;;;;;19.07;13.13;;;9.90;58.80;;;;;;4994056;28;20414;-81
2022/01/17 11:37:37;;;;;;;15.90;12.07;;;10.00;58.50;;;;;;4990004;28;20034;-82
2022/01/17 11:40:04;;;;;;;20.60;13.70;;;10.10;58.30;;;;;;4979445;28;20200;-81
2022/01/17 11:42:51;;;;;;;17.67;13.00;;;10.10;58.30;;;;;;4980188;28;20072;-83
2022/01/17 11:45:23;;;;;;;21.97;12.67;;;10.00;57.80;;;;;;5009178;28;20026;-81
2022/01/17 11:48:04;;;;;;;18.57;13.07;;;10.00;58.20;;;;;;4996431;28;20080;-81
2022/01/17 11:50:34;;;;;;;18.47;12.93;;;9.90;57.80;;;;;;4994133;28;20041;-81
2022/01/17 11:53:20;;;;;;;18.10;12.83;;;9.80;58.20;;;;;;5005833;28;20099;-81
2022/01/17 11:55:48;;;;;;;16.47;12.27;;;9.90;58.00;;;;;;5003004;28;20432;-83
2022/01/17 11:58:21;;;;;;;18.77;12.43;;;9.90;58.00;;;;;;4990574;28;20022;-81
2022/01/17 12:01:07;;;;;;;16.43;12.77;;;10.00;57.90;;;;;;5002226;28;20025;-81
2022/01/17 12:03:45;;;;;;;20.37;13.30;;;10.20;58.10;;;;;;5000424;28;20025;-82
2022/01/17 12:06:34;;;;;;;19.23;11.50;;;10.50;57.00;;;;;;4989715;28;20033;-83
2022/01/17 12:09:22;;;;;;;19.97;11.40;;;10.60;56.70;;;;;;4991633;28;20026;-81
2022/01/17 12:12:07;;;;;;;18.70;11.20;;;10.50;56.40;;;;;;5007944;28;20022;-82
2022/01/17 12:14:36;;;;;;;20.57;12.53;;;10.40;56.60;;;;;;4992444;28;20428;-82
2022/01/17 12:17:23;;;;;;;15.80;11.23;;;10.40;56.50;;;;;;5009671;28;20089;-83
2022/01/17 12:20:04;;;;;;;15.37;10.80;;;10.20;56.60;;;;;;5007478;28;20030;-81
2022/01/17 12:22:56;;;;;;;17.77;10.87;;;10.20;56.70;;;;;;4991896;28;20060;-82
2022/01/17 12:25:25;;;;;;;14.10;10.77;;;10.10;56.60;;;;;;4988347;28;20113;-82
2022/01/17 12:28:16;;;;;;;14.00;9.70;;;10.00;56.70;;;;;;4990036;28;20029;-83
2022/01/17 12:30:55;;;;;;;15.87;10.77;;;10.00;56.80;;;;;;4981806;28;20037;-82
2022/01/17 12:33:40;;;;;;;14.20;9.30;;;9.90;56.60;;;;;;5000264;28;20385;-83
2022/01/17 12:36:32;;;;;;;13.23;9.43;;;9.90;56.60;;;;;;5003440;28;20485;-83
2022/01/17 12:39:26;;;;;;;13.25;8.90;;;9.90;56.50;;;;;;4987853;28;20022;-83
2022/01/17 12:41:58;;;;;;;14.33;8.80;;;9.90;57.10;;;;;;4981542;28;20037;-82
2022/01/17 12:44:28;;;;;;;15.63;8.73;;;10.00;56.50;;;;;;4994909;28;20500;-82
2022/01/17 12:46:58;;;;;;;11.03;8.40;;;10.00;56.50;;;;;;4982848;28;20184;-83
2022/01/17 12:49:25;;;;;;;13.17;8.53;;;10.00;56.30;;;;;;4991704;28;20045;-82
2022/01/17 12:51:53;;;;;;;15.07;8.80;;;9.90;56.30;;;;;;4994935;28;20022;-83
2022/01/17 12:54:24;;;;;;;11.67;7.37;;;9.90;56.30;;;;;;4991572;28;20025;-83
2022/01/17 12:56:52;;;;;;;13.60;7.67;;;9.90;56.10;;;;;;5003941;28;20550;-82
2022/01/17 12:59:19;;;;;;;11.97;8.00;;;9.80;56.10;;;;;;4992830;28;20500;-84
2022/01/17 13:01:47;;;;;;;10.53;7.30;;;9.80;56.40;;;;;;4996063;28;20021;-83
2022/01/17 13:04:14;;;;;;;14.87;7.67;;;9.80;56.50;;;;;;5004590;28;20045;-83
2022/01/17 13:06:41;;;;;;;15.40;7.60;;;9.80;56.40;;;;;;5000851;28;20412;-82
2022/01/17 13:09:23;;;;;;;10.93;7.27;;;9.70;56.40;;;;;;4991086;28;20117;-82
2022/01/17 13:11:50;;;;;;;12.07;8.07;;;9.70;56.30;;;;;;4994602;28;20026;-83
2022/01/17 13:14:18;;;;;;;13.00;8.03;;;9.80;56.50;;;;;;5006691;28;20030;-82
2022/01/17 13:16:46;;;;;;;12.00;7.97;;;9.90;56.40;;;;;;4995337;28;20046;-82
2022/01/17 13:19:14;;;;;;;14.37;7.83;;;10.10;56.30;;;;;;4996727;28;20022;-82